sensor_id;sensor_type;location;lat;lon;timestamp;P1;durP1;ratioP1;P2;durP2;ratioP2
28304;SDS011;15569;42.652;23.040;2024-01-07T00:02:12;16.23;;;7.22;;
28304;SDS011;15569;42.652;23.040;2024-01-07T00:04:39;14.57;;;7.13;;
28304;SDS011;15569;42.652;23.040;2024-01-07T00:07:05;14.55;;;6.50;;
28304;SDS011;15569;42.652;23.040;2024-01-07T00:09:30;12.80;;;6.30;;
28304;SDS011;15569;42.652;23.040;2024-01-07T00:11:56;12.27;;;6.65;;
28304;SDS011;15569;42.652;23.040;2024-01-07T00:14:21;15.65;;;7.57;;
28304;SDS011;15569;42.652;23.040;2024-01-07T00:16:47;14.23;;;6.75;;
28304;SDS011;15569;42.652;23.040;2024-01-07T00:19:12;14.05;;;7.18;;
28304;SDS011;15569;42.652;23.040;2024-01-07T00:21:37;16.50;;;6.18;;
28304;SDS011;15569;42.652;23.040;2024-01-07T00:24:03;16.75;;;7.13;;
28304;SDS011;15569;42.652;23.040;2024-01-07T00:26:28;13.88;;;6.57;;
28304;SDS011;15569;42.652;23.040;2024-01-07T00:28:54;12.18;;;6.10;;
28304;SDS011;15569;42.652;23.040;2024-01-07T00:31:19;15.38;;;7.55;;
28304;SDS011;15569;42.652;23.040;2024-01-07T00:33:44;17.80;;;9.82;;
28304;SDS011;15569;42.652;23.040;2024-01-07T00:36:10;18.08;;;9.43;;
28304;SDS011;15569;42.652;23.040;2024-01-07T00:38:35;14.23;;;7.53;;
28304;SDS011;15569;42.652;23.040;2024-01-07T00:41:01;12.50;;;7.45;;
28304;SDS011;15569;42.652;23.040;2024-01-07T00:43:26;11.65;;;6.80;;
28304;SDS011;15569;42.652;23.040;2024-01-07T00:45:51;14.85;;;8.38;;
28304;SDS011;15569;42.652;23.040;2024-01-07T00:48:17;17.50;;;7.78;;
28304;SDS011;15569;42.652;23.040;2024-01-07T00:50:42;14.13;;;7.18;;
28304;SDS011;15569;42.652;23.040;2024-01-07T00:53:07;15.50;;;7.00;;
28304;SDS011;15569;42.652;23.040;2024-01-07T00:55:33;15.65;;;5.95;;
28304;SDS011;15569;42.652;23.040;2024-01-07T00:58:00;18.15;;;6.88;;
28304;SDS011;15569;42.652;23.040;2024-01-07T01:00:26;13.02;;;7.35;;
28304;SDS011;15569;42.652;23.040;2024-01-07T01:02:52;13.23;;;7.30;;
28304;SDS011;15569;42.652;23.040;2024-01-07T01:05:18;16.60;;;8.75;;
28304;SDS011;15569;42.652;23.040;2024-01-07T01:07:43;18.90;;;7.15;;
28304;SDS011;15569;42.652;23.040;2024-01-07T01:10:09;12.88;;;7.20;;
28304;SDS011;15569;42.652;23.040;2024-01-07T01:12:34;16.70;;;6.70;;
28304;SDS011;15569;42.652;23.040;2024-01-07T01:15:00;23.45;;;7.22;;
28304;SDS011;15569;42.652;23.040;2024-01-07T01:17:25;10.43;;;6.53;;
28304;SDS011;15569;42.652;23.040;2024-01-07T01:19:50;16.42;;;7.55;;
28304;SDS011;15569;42.652;23.040;2024-01-07T01:22:16;19.02;;;7.15;;
28304;SDS011;15569;42.652;23.040;2024-01-07T01:24:41;18.40;;;7.60;;
28304;SDS011;15569;42.652;23.040;2024-01-07T01:27:09;24.45;;;7.60;;
28304;SDS011;15569;42.652;23.040;2024-01-07T01:29:35;32.10;;;7.80;;
28304;SDS011;15569;42.652;23.040;2024-01-07T01:32:01;26.83;;;7.38;;
28304;SDS011;15569;42.652;23.040;2024-01-07T01:34:27;25.40;;;7.80;;
28304;SDS011;15569;42.652;23.040;2024-01-07T01:36:52;18.95;;;7.60;;
28304;SDS011;15569;42.652;23.040;2024-01-07T01:39:17;28.25;;;7.90;;
28304;SDS011;15569;42.652;23.040;2024-01-07T01:41:43;21.48;;;7.57;;
28304;SDS011;15569;42.652;23.040;2024-01-07T01:44:09;20.20;;;9.35;;
28304;SDS011;15569;42.652;23.040;2024-01-07T01:46:34;26.88;;;11.65;;
28304;SDS011;15569;42.652;23.040;2024-01-07T01:49:00;29.70;;;11.32;;
28304;SDS011;15569;42.652;23.040;2024-01-07T01:51:25;23.95;;;10.15;;
28304;SDS011;15569;42.652;23.040;2024-01-07T01:53:51;39.53;;;8.57;;
28304;SDS011;15569;42.652;23.040;2024-01-07T01:56:16;23.75;;;9.23;;
28304;SDS011;15569;42.652;23.040;2024-01-07T01:58:43;29.98;;;8.77;;
28304;SDS011;15569;42.652;23.040;2024-01-07T02:01:09;17.15;;;8.45;;
28304;SDS011;15569;42.652;23.040;2024-01-07T02:03:35;23.20;;;7.80;;
28304;SDS011;15569;42.652;23.040;2024-01-07T02:06:00;32.50;;;9.30;;
28304;SDS011;15569;42.652;23.040;2024-01-07T02:08:26;30.45;;;9.07;;
28304;SDS011;15569;42.652;23.040;2024-01-07T02:10:51;22.85;;;10.55;;
28304;SDS011;15569;42.652;23.040;2024-01-07T02:13:17;21.48;;;8.45;;
28304;SDS011;15569;42.652;23.040;2024-01-07T02:15:42;23.33;;;9.77;;
28304;SDS011;15569;42.652;23.040;2024-01-07T02:18:08;25.40;;;9.20;;
28304;SDS011;15569;42.652;23.040;2024-01-07T02:20:34;28.35;;;9.85;;
28304;SDS011;15569;42.652;23.040;2024-01-07T02:23:00;17.70;;;9.40;;
28304;SDS011;15569;42.652;23.040;2024-01-07T02:25:26;27.63;;;10.02;;
28304;SDS011;15569;42.652;23.040;2024-01-07T02:27:52;29.50;;;8.82;;
28304;SDS011;15569;42.652;23.040;2024-01-07T02:30:17;20.27;;;9.73;;
28304;SDS011;15569;42.652;23.040;2024-01-07T02:32:43;32.90;;;10.18;;
28304;SDS011;15569;42.652;23.040;2024-01-07T02:35:08;34.83;;;11.63;;
28304;SDS011;15569;42.652;23.040;2024-01-07T02:37:34;34.03;;;12.77;;
28304;SDS011;15569;42.652;23.040;2024-01-07T02:39:59;34.67;;;11.43;;
28304;SDS011;15569;42.652;23.040;2024-01-07T02:42:25;40.03;;;11.93;;
28304;SDS011;15569;42.652;23.040;2024-01-07T02:44:50;31.27;;;11.02;;
28304;SDS011;15569;42.652;23.040;2024-01-07T02:47:15;31.15;;;10.50;;
28304;SDS011;15569;42.652;23.040;2024-01-07T02:49:41;25.90;;;8.85;;
28304;SDS011;15569;42.652;23.040;2024-01-07T02:52:06;27.98;;;9.93;;
28304;SDS011;15569;42.652;23.040;2024-01-07T02:54:31;37.30;;;10.50;;
28304;SDS011;15569;42.652;23.040;2024-01-07T02:56:57;22.15;;;7.57;;
28304;SDS011;15569;42.652;23.040;2024-01-07T02:59:22;21.67;;;9.32;;
28304;SDS011;15569;42.652;23.040;2024-01-07T03:01:47;15.18;;;7.82;;
28304;SDS011;15569;42.652;23.040;2024-01-07T03:04:13;18.65;;;8.70;;
28304;SDS011;15569;42.652;23.040;2024-01-07T03:06:40;24.08;;;9.30;;
28304;SDS011;15569;42.652;23.040;2024-01-07T03:09:06;25.38;;;9.05;;
28304;SDS011;15569;42.652;23.040;2024-01-07T03:11:31;22.30;;;10.95;;
28304;SDS011;15569;42.652;23.040;2024-01-07T03:13:57;20.10;;;10.18;;
28304;SDS011;15569;42.652;23.040;2024-01-07T03:16:23;25.77;;;12.80;;
28304;SDS011;15569;42.652;23.040;2024-01-07T03:18:49;18.40;;;8.77;;
28304;SDS011;15569;42.652;23.040;2024-01-07T03:21:18;31.30;;;9.15;;
28304;SDS011;15569;42.652;23.040;2024-01-07T03:23:47;20.10;;;8.75;;
28304;SDS011;15569;42.652;23.040;2024-01-07T03:26:13;18.98;;;7.93;;
28304;SDS011;15569;42.652;23.040;2024-01-07T03:28:39;14.27;;;7.15;;
28304;SDS011;15569;42.652;23.040;2024-01-07T03:31:08;15.43;;;7.53;;
28304;SDS011;15569;42.652;23.040;2024-01-07T03:36:00;24.13;;;10.85;;
28304;SDS011;15569;42.652;23.040;2024-01-07T03:38:26;15.43;;;7.95;;
28304;SDS011;15569;42.652;23.040;2024-01-07T03:40:51;16.38;;;7.68;;
28304;SDS011;15569;42.652;23.040;2024-01-07T03:43:16;13.07;;;7.97;;
28304;SDS011;15569;42.652;23.040;2024-01-07T03:45:42;18.95;;;8.75;;
28304;SDS011;15569;42.652;23.040;2024-01-07T03:48:08;16.77;;;6.90;;
28304;SDS011;15569;42.652;23.040;2024-01-07T03:50:34;16.85;;;7.43;;
28304;SDS011;15569;42.652;23.040;2024-01-07T03:52:59;14.88;;;6.88;;
28304;SDS011;15569;42.652;23.040;2024-01-07T03:55:25;14.00;;;7.00;;
28304;SDS011;15569;42.652;23.040;2024-01-07T03:57:50;12.95;;;6.88;;
28304;SDS011;15569;42.652;23.040;2024-01-07T04:00:15;16.85;;;6.40;;
28304;SDS011;15569;42.652;23.040;2024-01-07T04:02:41;13.05;;;5.18;;
28304;SDS011;15569;42.652;23.040;2024-01-07T04:05:07;16.52;;;6.22;;
28304;SDS011;15569;42.652;23.040;2024-01-07T04:07:32;10.45;;;4.53;;
28304;SDS011;15569;42.652;23.040;2024-01-07T04:09:58;7.15;;;3.58;;
28304;SDS011;15569;42.652;23.040;2024-01-07T04:12:23;10.45;;;3.78;;
28304;SDS011;15569;42.652;23.040;2024-01-07T04:14:49;10.40;;;3.88;;
28304;SDS011;15569;42.652;23.040;2024-01-07T04:17:14;6.13;;;3.20;;
28304;SDS011;15569;42.652;23.040;2024-01-07T04:19:39;9.27;;;2.70;;
28304;SDS011;15569;42.652;23.040;2024-01-07T04:22:05;8.90;;;3.08;;
28304;SDS011;15569;42.652;23.040;2024-01-07T04:24:30;5.57;;;2.75;;
28304;SDS011;15569;42.652;23.040;2024-01-07T04:26:55;3.47;;;2.50;;
28304;SDS011;15569;42.652;23.040;2024-01-07T04:29:21;8.07;;;3.80;;
28304;SDS011;15569;42.652;23.040;2024-01-07T04:31:46;15.75;;;3.83;;
28304;SDS011;15569;42.652;23.040;2024-01-07T04:34:11;9.35;;;4.93;;
28304;SDS011;15569;42.652;23.040;2024-01-07T04:36:37;7.22;;;4.65;;
28304;SDS011;15569;42.652;23.040;2024-01-07T04:39:02;5.18;;;3.55;;
28304;SDS011;15569;42.652;23.040;2024-01-07T04:41:28;8.30;;;2.95;;
28304;SDS011;15569;42.652;23.040;2024-01-07T04:43:53;4.55;;;2.65;;
28304;SDS011;15569;42.652;23.040;2024-01-07T04:46:18;5.97;;;2.85;;
28304;SDS011;15569;42.652;23.040;2024-01-07T04:48:44;9.77;;;2.85;;
28304;SDS011;15569;42.652;23.040;2024-01-07T04:51:09;6.95;;;3.00;;
28304;SDS011;15569;42.652;23.040;2024-01-07T04:53:35;5.28;;;2.70;;
28304;SDS011;15569;42.652;23.040;2024-01-07T04:56:01;7.05;;;2.40;;
28304;SDS011;15569;42.652;23.040;2024-01-07T04:58:26;4.55;;;2.55;;
28304;SDS011;15569;42.652;23.040;2024-01-07T05:00:51;7.85;;;3.35;;
28304;SDS011;15569;42.652;23.040;2024-01-07T05:03:17;9.60;;;3.58;;
28304;SDS011;15569;42.652;23.040;2024-01-07T05:05:43;19.67;;;5.53;;
28304;SDS011;15569;42.652;23.040;2024-01-07T05:08:08;12.10;;;3.75;;
28304;SDS011;15569;42.652;23.040;2024-01-07T05:10:33;10.00;;;4.22;;
28304;SDS011;15569;42.652;23.040;2024-01-07T05:12:59;13.38;;;3.90;;
28304;SDS011;15569;42.652;23.040;2024-01-07T05:15:29;8.85;;;3.95;;
28304;SDS011;15569;42.652;23.040;2024-01-07T05:17:55;8.07;;;3.47;;
28304;SDS011;15569;42.652;23.040;2024-01-07T05:20:20;7.18;;;3.63;;
28304;SDS011;15569;42.652;23.040;2024-01-07T05:22:46;10.85;;;4.13;;
28304;SDS011;15569;42.652;23.040;2024-01-07T05:25:11;13.57;;;3.67;;
28304;SDS011;15569;42.652;23.040;2024-01-07T05:27:37;29.40;;;4.18;;
28304;SDS011;15569;42.652;23.040;2024-01-07T05:30:03;25.13;;;5.25;;
28304;SDS011;15569;42.652;23.040;2024-01-07T05:32:28;22.88;;;4.72;;
28304;SDS011;15569;42.652;23.040;2024-01-07T05:34:54;22.75;;;6.07;;
28304;SDS011;15569;42.652;23.040;2024-01-07T05:37:19;18.92;;;4.70;;
28304;SDS011;15569;42.652;23.040;2024-01-07T05:39:44;5.40;;;1.58;;
28304;SDS011;15569;42.652;23.040;2024-01-07T05:42:10;7.45;;;2.05;;
28304;SDS011;15569;42.652;23.040;2024-01-07T05:44:35;5.45;;;1.40;;
28304;SDS011;15569;42.652;23.040;2024-01-07T05:47:01;10.40;;;1.80;;
28304;SDS011;15569;42.652;23.040;2024-01-07T05:49:26;5.88;;;1.15;;
28304;SDS011;15569;42.652;23.040;2024-01-07T05:51:52;8.27;;;1.35;;
28304;SDS011;15569;42.652;23.040;2024-01-07T05:54:17;3.45;;;1.42;;
28304;SDS011;15569;42.652;23.040;2024-01-07T05:56:43;1.85;;;1.02;;
28304;SDS011;15569;42.652;23.040;2024-01-07T05:59:08;3.10;;;1.20;;
28304;SDS011;15569;42.652;23.040;2024-01-07T06:01:34;7.18;;;1.83;;
28304;SDS011;15569;42.652;23.040;2024-01-07T06:04:00;4.40;;;1.83;;
28304;SDS011;15569;42.652;23.040;2024-01-07T06:06:25;3.50;;;1.60;;
28304;SDS011;15569;42.652;23.040;2024-01-07T06:08:50;5.07;;;1.90;;
28304;SDS011;15569;42.652;23.040;2024-01-07T06:11:16;4.20;;;1.67;;
28304;SDS011;15569;42.652;23.040;2024-01-07T06:13:45;2.83;;;1.42;;
28304;SDS011;15569;42.652;23.040;2024-01-07T06:16:11;3.33;;;1.25;;
28304;SDS011;15569;42.652;23.040;2024-01-07T06:18:36;3.63;;;1.40;;
28304;SDS011;15569;42.652;23.040;2024-01-07T06:21:01;3.88;;;1.33;;
28304;SDS011;15569;42.652;23.040;2024-01-07T06:23:27;2.92;;;1.45;;
28304;SDS011;15569;42.652;23.040;2024-01-07T06:25:52;7.18;;;1.40;;
28304;SDS011;15569;42.652;23.040;2024-01-07T06:28:18;3.83;;;0.95;;
28304;SDS011;15569;42.652;23.040;2024-01-07T06:30:43;2.80;;;0.80;;
28304;SDS011;15569;42.652;23.040;2024-01-07T06:33:09;4.32;;;1.00;;
28304;SDS011;15569;42.652;23.040;2024-01-07T06:35:34;7.80;;;1.17;;
28304;SDS011;15569;42.652;23.040;2024-01-07T06:37:59;2.25;;;1.20;;
28304;SDS011;15569;42.652;23.040;2024-01-07T06:40:25;4.60;;;1.38;;
28304;SDS011;15569;42.652;23.040;2024-01-07T06:42:50;6.28;;;1.40;;
28304;SDS011;15569;42.652;23.040;2024-01-07T06:45:16;1.67;;;0.85;;
28304;SDS011;15569;42.652;23.040;2024-01-07T06:47:42;3.83;;;0.70;;
28304;SDS011;15569;42.652;23.040;2024-01-07T06:50:08;3.72;;;0.70;;
28304;SDS011;15569;42.652;23.040;2024-01-07T06:52:35;1.00;;;0.70;;
28304;SDS011;15569;42.652;23.040;2024-01-07T06:55:00;4.90;;;1.30;;
28304;SDS011;15569;42.652;23.040;2024-01-07T06:57:26;2.45;;;0.82;;
28304;SDS011;15569;42.652;23.040;2024-01-07T06:59:51;2.08;;;1.02;;
28304;SDS011;15569;42.652;23.040;2024-01-07T07:02:17;4.20;;;0.70;;
28304;SDS011;15569;42.652;23.040;2024-01-07T07:04:42;1.55;;;0.77;;
28304;SDS011;15569;42.652;23.040;2024-01-07T07:07:07;2.20;;;1.48;;
28304;SDS011;15569;42.652;23.040;2024-01-07T07:09:33;4.93;;;1.20;;
28304;SDS011;15569;42.652;23.040;2024-01-07T07:11:59;5.07;;;2.08;;
28304;SDS011;15569;42.652;23.040;2024-01-07T07:14:24;5.45;;;1.38;;
28304;SDS011;15569;42.652;23.040;2024-01-07T07:16:50;5.00;;;1.30;;
28304;SDS011;15569;42.652;23.040;2024-01-07T07:19:15;3.88;;;0.85;;
28304;SDS011;15569;42.652;23.040;2024-01-07T07:21:41;0.90;;;0.70;;
28304;SDS011;15569;42.652;23.040;2024-01-07T07:24:08;1.23;;;0.60;;
28304;SDS011;15569;42.652;23.040;2024-01-07T07:26:33;5.03;;;1.88;;
28304;SDS011;15569;42.652;23.040;2024-01-07T07:29:01;3.53;;;0.70;;
28304;SDS011;15569;42.652;23.040;2024-01-07T07:31:26;2.70;;;1.33;;
28304;SDS011;15569;42.652;23.040;2024-01-07T07:33:52;2.70;;;0.90;;
28304;SDS011;15569;42.652;23.040;2024-01-07T07:36:17;3.53;;;1.40;;
28304;SDS011;15569;42.652;23.040;2024-01-07T07:38:43;3.15;;;1.60;;
28304;SDS011;15569;42.652;23.040;2024-01-07T07:41:08;3.55;;;1.55;;
28304;SDS011;15569;42.652;23.040;2024-01-07T07:43:33;3.00;;;1.00;;
28304;SDS011;15569;42.652;23.040;2024-01-07T07:45:59;2.97;;;1.30;;
28304;SDS011;15569;42.652;23.040;2024-01-07T07:48:26;3.60;;;1.75;;
28304;SDS011;15569;42.652;23.040;2024-01-07T07:50:53;8.07;;;2.03;;
28304;SDS011;15569;42.652;23.040;2024-01-07T07:53:18;6.93;;;1.35;;
28304;SDS011;15569;42.652;23.040;2024-01-07T07:55:44;1.58;;;0.55;;
28304;SDS011;15569;42.652;23.040;2024-01-07T07:58:09;4.90;;;1.42;;
28304;SDS011;15569;42.652;23.040;2024-01-07T08:00:34;4.07;;;2.00;;
28304;SDS011;15569;42.652;23.040;2024-01-07T08:03:00;6.78;;;2.10;;
28304;SDS011;15569;42.652;23.040;2024-01-07T08:05:25;5.72;;;1.88;;
28304;SDS011;15569;42.652;23.040;2024-01-07T08:07:51;3.90;;;2.58;;
28304;SDS011;15569;42.652;23.040;2024-01-07T08:10:16;3.80;;;1.35;;
28304;SDS011;15569;42.652;23.040;2024-01-07T08:12:41;6.32;;;2.33;;
28304;SDS011;15569;42.652;23.040;2024-01-07T08:15:07;7.47;;;2.90;;
28304;SDS011;15569;42.652;23.040;2024-01-07T08:17:33;5.63;;;1.88;;
28304;SDS011;15569;42.652;23.040;2024-01-07T08:19:58;3.63;;;1.15;;
28304;SDS011;15569;42.652;23.040;2024-01-07T08:22:24;3.88;;;1.52;;
28304;SDS011;15569;42.652;23.040;2024-01-07T08:24:50;2.00;;;1.40;;
28304;SDS011;15569;42.652;23.040;2024-01-07T08:27:16;6.03;;;1.35;;
28304;SDS011;15569;42.652;23.040;2024-01-07T08:29:44;3.22;;;1.13;;
28304;SDS011;15569;42.652;23.040;2024-01-07T08:32:10;2.40;;;2.08;;
28304;SDS011;15569;42.652;23.040;2024-01-07T08:34:37;6.30;;;1.60;;
28304;SDS011;15569;42.652;23.040;2024-01-07T08:37:03;9.15;;;1.92;;
28304;SDS011;15569;42.652;23.040;2024-01-07T08:39:28;7.93;;;2.00;;
28304;SDS011;15569;42.652;23.040;2024-01-07T08:41:55;1.35;;;0.95;;
28304;SDS011;15569;42.652;23.040;2024-01-07T08:44:20;5.60;;;1.55;;
28304;SDS011;15569;42.652;23.040;2024-01-07T08:46:45;2.75;;;1.92;;
28304;SDS011;15569;42.652;23.040;2024-01-07T08:49:11;4.32;;;2.22;;
28304;SDS011;15569;42.652;23.040;2024-01-07T08:51:36;2.58;;;0.90;;
28304;SDS011;15569;42.652;23.040;2024-01-07T08:54:03;1.73;;;0.93;;
28304;SDS011;15569;42.652;23.040;2024-01-07T08:56:28;2.45;;;1.00;;
28304;SDS011;15569;42.652;23.040;2024-01-07T08:58:54;3.03;;;0.80;;
28304;SDS011;15569;42.652;23.040;2024-01-07T09:01:19;2.72;;;1.15;;
28304;SDS011;15569;42.652;23.040;2024-01-07T09:03:45;3.72;;;1.38;;
28304;SDS011;15569;42.652;23.040;2024-01-07T09:06:10;2.28;;;0.77;;
28304;SDS011;15569;42.652;23.040;2024-01-07T09:08:35;6.18;;;1.60;;
28304;SDS011;15569;42.652;23.040;2024-01-07T09:11:03;4.15;;;1.05;;
28304;SDS011;15569;42.652;23.040;2024-01-07T09:13:29;5.78;;;1.50;;
28304;SDS011;15569;42.652;23.040;2024-01-07T09:15:54;6.65;;;1.17;;
28304;SDS011;15569;42.652;23.040;2024-01-07T09:18:20;2.28;;;1.30;;
28304;SDS011;15569;42.652;23.040;2024-01-07T09:20:45;2.05;;;0.77;;
28304;SDS011;15569;42.652;23.040;2024-01-07T09:23:10;2.65;;;0.80;;
28304;SDS011;15569;42.652;23.040;2024-01-07T09:25:37;4.63;;;0.95;;
28304;SDS011;15569;42.652;23.040;2024-01-07T09:28:02;1.60;;;1.00;;
28304;SDS011;15569;42.652;23.040;2024-01-07T09:30:28;2.47;;;0.85;;
28304;SDS011;15569;42.652;23.040;2024-01-07T09:32:53;6.10;;;1.20;;
28304;SDS011;15569;42.652;23.040;2024-01-07T09:35:19;3.30;;;0.75;;
28304;SDS011;15569;42.652;23.040;2024-01-07T09:37:44;4.47;;;1.45;;
28304;SDS011;15569;42.652;23.040;2024-01-07T09:40:09;3.08;;;1.13;;
28304;SDS011;15569;42.652;23.040;2024-01-07T09:42:36;1.35;;;0.45;;
28304;SDS011;15569;42.652;23.040;2024-01-07T09:45:02;1.17;;;0.50;;
28304;SDS011;15569;42.652;23.040;2024-01-07T09:47:31;1.92;;;0.77;;
28304;SDS011;15569;42.652;23.040;2024-01-07T09:49:56;6.07;;;0.57;;
28304;SDS011;15569;42.652;23.040;2024-01-07T09:52:22;5.47;;;0.85;;
28304;SDS011;15569;42.652;23.040;2024-01-07T09:54:50;4.10;;;0.88;;
28304;SDS011;15569;42.652;23.040;2024-01-07T09:57:17;1.48;;;0.63;;
28304;SDS011;15569;42.652;23.040;2024-01-07T09:59:42;4.95;;;0.80;;
28304;SDS011;15569;42.652;23.040;2024-01-07T10:02:08;0.82;;;0.52;;
28304;SDS011;15569;42.652;23.040;2024-01-07T10:04:34;3.50;;;0.82;;
28304;SDS011;15569;42.652;23.040;2024-01-07T10:07:00;0.55;;;0.47;;
28304;SDS011;15569;42.652;23.040;2024-01-07T10:09:29;2.97;;;0.73;;
28304;SDS011;15569;42.652;23.040;2024-01-07T10:11:57;0.88;;;0.60;;
28304;SDS011;15569;42.652;23.040;2024-01-07T10:14:22;4.05;;;0.90;;
28304;SDS011;15569;42.652;23.040;2024-01-07T10:16:49;2.05;;;0.60;;
28304;SDS011;15569;42.652;23.040;2024-01-07T10:19:24;2.65;;;0.52;;
28304;SDS011;15569;42.652;23.040;2024-01-07T10:22:03;5.13;;;1.45;;
28304;SDS011;15569;42.652;23.040;2024-01-07T10:24:36;4.22;;;1.63;;
28304;SDS011;15569;42.652;23.040;2024-01-07T10:27:06;2.22;;;0.95;;
28304;SDS011;15569;42.652;23.040;2024-01-07T10:29:32;2.67;;;0.45;;
28304;SDS011;15569;42.652;23.040;2024-01-07T10:32:01;8.35;;;2.97;;
28304;SDS011;15569;42.652;23.040;2024-01-07T10:34:34;1.20;;;0.40;;
28304;SDS011;15569;42.652;23.040;2024-01-07T10:37:01;3.75;;;1.48;;
28304;SDS011;15569;42.652;23.040;2024-01-07T10:39:27;1.20;;;0.30;;
28304;SDS011;15569;42.652;23.040;2024-01-07T10:41:54;4.28;;;1.58;;
28304;SDS011;15569;42.652;23.040;2024-01-07T10:44:26;4.28;;;1.92;;
28304;SDS011;15569;42.652;23.040;2024-01-07T10:46:53;8.13;;;3.00;;
28304;SDS011;15569;42.652;23.040;2024-01-07T10:49:20;5.35;;;2.67;;
28304;SDS011;15569;42.652;23.040;2024-01-07T10:51:48;2.50;;;1.92;;
28304;SDS011;15569;42.652;23.040;2024-01-07T10:54:21;1.33;;;0.88;;
28304;SDS011;15569;42.652;23.040;2024-01-07T10:56:49;1.90;;;0.82;;
28304;SDS011;15569;42.652;23.040;2024-01-07T10:59:17;5.10;;;1.10;;
28304;SDS011;15569;42.652;23.040;2024-01-07T11:01:44;1.77;;;0.30;;
28304;SDS011;15569;42.652;23.040;2024-01-07T11:12:21;1.83;;;0.80;;
28304;SDS011;15569;42.652;23.040;2024-01-07T11:14:47;0.50;;;0.50;;
28304;SDS011;15569;42.652;23.040;2024-01-07T11:20:01;1.23;;;0.47;;
28304;SDS011;15569;42.652;23.040;2024-01-07T11:22:27;1.73;;;0.75;;
28304;SDS011;15569;42.652;23.040;2024-01-07T11:25:00;5.20;;;2.00;;
28304;SDS011;15569;42.652;23.040;2024-01-07T11:27:28;2.67;;;0.88;;
28304;SDS011;15569;42.652;23.040;2024-01-07T11:30:02;3.78;;;1.73;;
28304;SDS011;15569;42.652;23.040;2024-01-07T11:32:29;7.40;;;2.15;;
28304;SDS011;15569;42.652;23.040;2024-01-07T11:34:55;2.75;;;1.15;;
28304;SDS011;15569;42.652;23.040;2024-01-07T11:37:23;6.47;;;2.88;;
28304;SDS011;15569;42.652;23.040;2024-01-07T11:39:50;6.78;;;1.30;;
28304;SDS011;15569;42.652;23.040;2024-01-07T11:42:17;9.45;;;3.00;;
28304;SDS011;15569;42.652;23.040;2024-01-07T11:44:49;3.42;;;1.42;;
28304;SDS011;15569;42.652;23.040;2024-01-07T11:47:17;4.03;;;0.63;;
28304;SDS011;15569;42.652;23.040;2024-01-07T11:49:43;2.67;;;0.90;;
28304;SDS011;15569;42.652;23.040;2024-01-07T11:52:10;3.95;;;1.10;;
28304;SDS011;15569;42.652;23.040;2024-01-07T11:54:36;2.80;;;1.45;;
28304;SDS011;15569;42.652;23.040;2024-01-07T11:57:03;2.95;;;0.60;;
28304;SDS011;15569;42.652;23.040;2024-01-07T11:59:29;4.00;;;0.75;;
28304;SDS011;15569;42.652;23.040;2024-01-07T12:01:54;7.07;;;0.60;;
28304;SDS011;15569;42.652;23.040;2024-01-07T12:04:20;1.90;;;0.82;;
28304;SDS011;15569;42.652;23.040;2024-01-07T12:06:46;0.47;;;0.45;;
28304;SDS011;15569;42.652;23.040;2024-01-07T12:09:13;4.55;;;0.55;;
28304;SDS011;15569;42.652;23.040;2024-01-07T12:11:39;2.15;;;0.88;;
28304;SDS011;15569;42.652;23.040;2024-01-07T12:14:06;4.13;;;0.30;;
28304;SDS011;15569;42.652;23.040;2024-01-07T12:16:32;0.73;;;0.43;;
28304;SDS011;15569;42.652;23.040;2024-01-07T12:18:58;0.73;;;0.52;;
28304;SDS011;15569;42.652;23.040;2024-01-07T12:21:24;1.30;;;0.57;;
28304;SDS011;15569;42.652;23.040;2024-01-07T12:23:52;2.60;;;0.93;;
28304;SDS011;15569;42.652;23.040;2024-01-07T12:26:19;0.47;;;0.30;;
28304;SDS011;15569;42.652;23.040;2024-01-07T12:28:45;2.13;;;0.50;;
28304;SDS011;15569;42.652;23.040;2024-01-07T12:31:16;0.40;;;0.40;;
28304;SDS011;15569;42.652;23.040;2024-01-07T12:33:42;2.88;;;0.93;;
28304;SDS011;15569;42.652;23.040;2024-01-07T12:36:07;1.90;;;1.17;;
28304;SDS011;15569;42.652;23.040;2024-01-07T12:38:33;3.90;;;0.93;;
28304;SDS011;15569;42.652;23.040;2024-01-07T12:41:02;2.70;;;0.80;;
28304;SDS011;15569;42.652;23.040;2024-01-07T12:43:28;3.80;;;1.00;;
28304;SDS011;15569;42.652;23.040;2024-01-07T12:45:53;4.35;;;0.57;;
28304;SDS011;15569;42.652;23.040;2024-01-07T12:48:20;2.38;;;0.63;;
28304;SDS011;15569;42.652;23.040;2024-01-07T12:50:46;2.47;;;1.13;;
28304;SDS011;15569;42.652;23.040;2024-01-07T12:53:11;1.10;;;1.00;;
28304;SDS011;15569;42.652;23.040;2024-01-07T12:55:36;0.52;;;0.50;;
28304;SDS011;15569;42.652;23.040;2024-01-07T12:58:02;2.33;;;0.45;;
28304;SDS011;15569;42.652;23.040;2024-01-07T13:00:27;4.07;;;0.60;;
28304;SDS011;15569;42.652;23.040;2024-01-07T13:02:54;4.07;;;1.38;;
28304;SDS011;15569;42.652;23.040;2024-01-07T13:05:19;0.30;;;0.30;;
28304;SDS011;15569;42.652;23.040;2024-01-07T13:07:48;3.97;;;1.77;;
28304;SDS011;15569;42.652;23.040;2024-01-07T13:10:15;4.43;;;1.33;;
28304;SDS011;15569;42.652;23.040;2024-01-07T13:12:40;4.68;;;0.57;;
28304;SDS011;15569;42.652;23.040;2024-01-07T13:15:06;1.67;;;0.45;;
28304;SDS011;15569;42.652;23.040;2024-01-07T13:17:31;3.70;;;0.95;;
28304;SDS011;15569;42.652;23.040;2024-01-07T13:19:58;1.08;;;0.43;;
28304;SDS011;15569;42.652;23.040;2024-01-07T13:22:23;4.07;;;1.38;;
28304;SDS011;15569;42.652;23.040;2024-01-07T13:24:49;4.65;;;1.00;;
28304;SDS011;15569;42.652;23.040;2024-01-07T13:27:15;6.03;;;1.42;;
28304;SDS011;15569;42.652;23.040;2024-01-07T13:29:42;1.92;;;0.68;;
28304;SDS011;15569;42.652;23.040;2024-01-07T13:32:10;1.15;;;0.70;;
28304;SDS011;15569;42.652;23.040;2024-01-07T13:34:36;1.45;;;0.75;;
28304;SDS011;15569;42.652;23.040;2024-01-07T13:37:01;1.50;;;0.98;;
28304;SDS011;15569;42.652;23.040;2024-01-07T13:39:28;2.80;;;0.80;;
28304;SDS011;15569;42.652;23.040;2024-01-07T13:41:54;1.00;;;0.82;;
28304;SDS011;15569;42.652;23.040;2024-01-07T13:44:20;3.80;;;2.05;;
28304;SDS011;15569;42.652;23.040;2024-01-07T13:46:46;3.42;;;1.17;;
28304;SDS011;15569;42.652;23.040;2024-01-07T13:49:15;1.67;;;0.88;;
28304;SDS011;15569;42.652;23.040;2024-01-07T13:51:40;3.80;;;2.15;;
28304;SDS011;15569;42.652;23.040;2024-01-07T13:54:06;3.78;;;1.30;;
28304;SDS011;15569;42.652;23.040;2024-01-07T13:56:32;3.90;;;1.13;;
28304;SDS011;15569;42.652;23.040;2024-01-07T13:59:01;4.93;;;2.20;;
28304;SDS011;15569;42.652;23.040;2024-01-07T14:01:28;2.20;;;0.95;;
28304;SDS011;15569;42.652;23.040;2024-01-07T14:03:54;3.88;;;1.85;;
28304;SDS011;15569;42.652;23.040;2024-01-07T14:06:19;1.08;;;0.80;;
28304;SDS011;15569;42.652;23.040;2024-01-07T14:08:45;1.15;;;0.82;;
28304;SDS011;15569;42.652;23.040;2024-01-07T14:11:10;4.15;;;2.28;;
28304;SDS011;15569;42.652;23.040;2024-01-07T14:13:35;7.28;;;3.80;;
28304;SDS011;15569;42.652;23.040;2024-01-07T14:16:02;7.43;;;3.65;;
28304;SDS011;15569;42.652;23.040;2024-01-07T14:18:27;3.03;;;1.67;;
28304;SDS011;15569;42.652;23.040;2024-01-07T14:20:53;3.47;;;1.30;;
28304;SDS011;15569;42.652;23.040;2024-01-07T14:23:18;0.65;;;0.45;;
28304;SDS011;15569;42.652;23.040;2024-01-07T14:25:44;2.30;;;1.17;;
28304;SDS011;15569;42.652;23.040;2024-01-07T14:28:09;6.30;;;1.60;;
28304;SDS011;15569;42.652;23.040;2024-01-07T14:30:35;3.33;;;1.48;;
28304;SDS011;15569;42.652;23.040;2024-01-07T14:33:01;1.52;;;0.65;;
28304;SDS011;15569;42.652;23.040;2024-01-07T14:35:26;3.80;;;1.30;;